EZY262 EGAC-EGGD
Flight info
| Callsign | EZY262 |
|---|---|
| Flight time | 0h 41m |
| Altitude | 29000 |
| Route | DUFFY L10 RINGA Q39 ETIGA DCT INKOB Q39 NOMSU UQ4 WAL N862 KARNO/N0440F280 DCT ALHUP DCT LUCSA/N0409F230 N862 WEVBE |
| Aircraft | A320/M-SDE3FGHIRWY/LB1 |
Departure
| Time | 2026-04-25 17:26 |
|---|---|
| Airport | George Best Belfast City Airport (EGAC) |
Arrival
| Time | 2026-04-25 18:07 |
|---|---|
| Airport | Bristol Airport (EGGD) |
| Time | Latitude | Longitude | Altitude | Speed | Heading |
|---|---|---|---|---|---|
| 2026-04-25 16:55 | 54.61496 | -5.87141 | 23 ft | 0 kts | 157° |
| 2026-04-25 17:20 | 54.61498 | -5.87142 | 23 ft | 2 kts | 157° |
| 2026-04-25 17:20 | 54.61521 | -5.87161 | 26 ft | 4 kts | 146° |
| 2026-04-25 17:20 | 54.61539 | -5.87191 | 25 ft | 4 kts | 107° |
| 2026-04-25 17:20 | 54.61538 | -5.87215 | 24 ft | 1 kts | 34° |
| 2026-04-25 17:22 | 54.61560 | -5.87189 | 25 ft | 12 kts | 34° |
| 2026-04-25 17:23 | 54.61658 | -5.87072 | 23 ft | 19 kts | 34° |
| 2026-04-25 17:23 | 54.61767 | -5.87016 | 23 ft | 16 kts | 318° |
| 2026-04-25 17:23 | 54.61839 | -5.87154 | 24 ft | 18 kts | 339° |
| 2026-04-25 17:23 | 54.61991 | -5.87037 | 23 ft | 30 kts | 34° |
| 2026-04-25 17:24 | 54.62163 | -5.86830 | 23 ft | 30 kts | 34° |
| 2026-04-25 17:24 | 54.62332 | -5.86630 | 25 ft | 29 kts | 34° |
| 2026-04-25 17:24 | 54.62457 | -5.86541 | 26 ft | 12 kts | 15° |
| 2026-04-25 17:24 | 54.62445 | -5.86465 | 25 ft | 6 kts | 203° |
| 2026-04-25 17:25 | 54.62392 | -5.86557 | 25 ft | 16 kts | 214° |
| 2026-04-25 17:25 | 54.62281 | -5.86688 | 26 ft | 34 kts | 215° |
| 2026-04-25 17:25 | 54.61847 | -5.87205 | 27 ft | 113 kts | 215° |
| 2026-04-25 17:25 | 54.61045 | -5.88160 | 227 ft | 151 kts | 211° |
| 2026-04-25 17:26 | 54.60204 | -5.89172 | 1055 ft | 149 kts | 212° |
| 2026-04-25 17:26 | 54.59293 | -5.90254 | 1448 ft | 170 kts | 212° |
| 2026-04-25 17:26 | 54.58154 | -5.91144 | 1830 ft | 191 kts | 182° |
| 2026-04-25 17:26 | 54.56823 | -5.90532 | 2200 ft | 215 kts | 155° |
| 2026-04-25 17:27 | 54.55396 | -5.89351 | 2674 ft | 239 kts | 155° |
| 2026-04-25 17:27 | 54.53876 | -5.88090 | 3247 ft | 255 kts | 155° |
| 2026-04-25 17:27 | 54.52253 | -5.86729 | 4047 ft | 263 kts | 152° |
| 2026-04-25 17:27 | 54.51274 | -5.85464 | 4603 ft | 269 kts | 134° |
| 2026-04-25 17:28 | 54.49788 | -5.81926 | 5788 ft | 275 kts | 125° |
| 2026-04-25 17:28 | 54.48705 | -5.79195 | 6718 ft | 276 kts | 126° |
| 2026-04-25 17:28 | 54.47628 | -5.76493 | 7565 ft | 279 kts | 126° |
| 2026-04-25 17:28 | 54.46520 | -5.73721 | 8451 ft | 281 kts | 126° |
| 2026-04-25 17:29 | 54.45399 | -5.70925 | 9318 ft | 284 kts | 126° |
| 2026-04-25 17:29 | 54.44269 | -5.68111 | 10179 ft | 287 kts | 126° |
| 2026-04-25 17:29 | 54.43122 | -5.65262 | 10654 ft | 304 kts | 127° |
| 2026-04-25 17:29 | 54.41870 | -5.62165 | 10888 ft | 327 kts | 127° |
| 2026-04-25 17:30 | 54.40523 | -5.58838 | 11187 ft | 346 kts | 127° |
| 2026-04-25 17:30 | 54.39128 | -5.55389 | 11788 ft | 353 kts | 127° |
| 2026-04-25 17:30 | 54.37720 | -5.51901 | 12480 ft | 358 kts | 127° |
| 2026-04-25 17:30 | 54.36310 | -5.48409 | 13142 ft | 363 kts | 127° |
| 2026-04-25 17:31 | 54.34857 | -5.44819 | 13830 ft | 367 kts | 127° |
| 2026-04-25 17:31 | 54.33388 | -5.41200 | 14461 ft | 371 kts | 127° |
| 2026-04-25 17:31 | 54.31896 | -5.37533 | 15055 ft | 375 kts | 127° |
| 2026-04-25 17:31 | 54.30392 | -5.33843 | 15653 ft | 379 kts | 127° |
| 2026-04-25 17:32 | 54.28893 | -5.30168 | 16221 ft | 383 kts | 127° |
| 2026-04-25 17:32 | 54.27342 | -5.26420 | 16793 ft | 387 kts | 128° |
| 2026-04-25 17:32 | 54.25683 | -5.22727 | 17358 ft | 391 kts | 130° |
| 2026-04-25 17:32 | 54.23953 | -5.19112 | 17909 ft | 395 kts | 132° |
| 2026-04-25 17:33 | 54.22187 | -5.15540 | 18455 ft | 399 kts | 132° |
| 2026-04-25 17:33 | 54.20377 | -5.11901 | 18914 ft | 403 kts | 132° |
| 2026-04-25 17:33 | 54.18560 | -5.08228 | 19406 ft | 406 kts | 132° |
| 2026-04-25 17:33 | 54.16738 | -5.04506 | 19890 ft | 409 kts | 131° |
| 2026-04-25 17:34 | 54.14913 | -5.00735 | 20380 ft | 412 kts | 131° |
| 2026-04-25 17:34 | 54.13102 | -4.96977 | 20843 ft | 415 kts | 131° |
| 2026-04-25 17:34 | 54.11259 | -4.93153 | 21302 ft | 419 kts | 131° |
| 2026-04-25 17:34 | 54.09400 | -4.89306 | 21759 ft | 422 kts | 131° |
| 2026-04-25 17:35 | 54.07517 | -4.85431 | 22211 ft | 425 kts | 131° |
| 2026-04-25 17:35 | 54.05616 | -4.81536 | 22659 ft | 428 kts | 131° |
| 2026-04-25 17:35 | 54.03734 | -4.77660 | 23097 ft | 431 kts | 131° |
| 2026-04-25 17:35 | 54.01868 | -4.73632 | 23514 ft | 434 kts | 129° |
| 2026-04-25 17:36 | 54.00034 | -4.69514 | 23924 ft | 437 kts | 128° |
| 2026-04-25 17:36 | 53.98215 | -4.65343 | 24290 ft | 440 kts | 128° |
| 2026-04-25 17:36 | 53.96388 | -4.61141 | 24649 ft | 442 kts | 128° |
| 2026-04-25 17:36 | 53.94534 | -4.56919 | 25012 ft | 444 kts | 128° |
| 2026-04-25 17:37 | 53.92666 | -4.52719 | 25358 ft | 447 kts | 129° |
| 2026-04-25 17:37 | 53.90789 | -4.48537 | 25679 ft | 449 kts | 129° |
| 2026-04-25 17:37 | 53.88886 | -4.44319 | 25981 ft | 452 kts | 129° |
| 2026-04-25 17:37 | 53.86980 | -4.40100 | 26307 ft | 455 kts | 129° |
| 2026-04-25 17:38 | 53.85093 | -4.35763 | 26640 ft | 458 kts | 127° |
| 2026-04-25 17:38 | 53.83877 | -4.32843 | 26861 ft | 459 kts | 126° |
| 2026-04-25 17:38 | 53.81454 | -4.26834 | 27294 ft | 462 kts | 126° |
| 2026-04-25 17:38 | 53.79653 | -4.22301 | 27615 ft | 465 kts | 126° |
| 2026-04-25 17:39 | 53.77858 | -4.17809 | 27922 ft | 467 kts | 126° |
| 2026-04-25 17:39 | 53.76015 | -4.13253 | 28237 ft | 468 kts | 126° |
| 2026-04-25 17:39 | 53.74146 | -4.08693 | 28541 ft | 470 kts | 126° |
| 2026-04-25 17:39 | 53.72286 | -4.04197 | 28816 ft | 472 kts | 127° |
| 2026-04-25 17:40 | 53.70393 | -3.99650 | 29106 ft | 474 kts | 127° |
| 2026-04-25 17:40 | 53.68492 | -3.95090 | 29212 ft | 471 kts | 127° |
| 2026-04-25 17:40 | 53.64761 | -3.86135 | 29216 ft | 467 kts | 127° |
| 2026-04-25 17:41 | 53.61016 | -3.77161 | 29215 ft | 467 kts | 127° |
| 2026-04-25 17:41 | 53.57266 | -3.68209 | 29215 ft | 467 kts | 127° |
| 2026-04-25 17:42 | 53.53512 | -3.59256 | 29216 ft | 466 kts | 126° |
| 2026-04-25 17:42 | 53.49770 | -3.50389 | 29210 ft | 466 kts | 127° |
| 2026-04-25 17:43 | 53.46301 | -3.41279 | 29211 ft | 467 kts | 116° |
| 2026-04-25 17:43 | 53.43738 | -3.31239 | 29208 ft | 467 kts | 114° |
| 2026-04-25 17:44 | 53.41047 | -3.21336 | 29199 ft | 466 kts | 122° |
| 2026-04-25 17:44 | 53.36978 | -3.13064 | 29201 ft | 462 kts | 141° |
| 2026-04-25 17:45 | 53.33484 | -3.08932 | 29203 ft | 458 kts | 153° |
| 2026-04-25 17:45 | 53.25847 | -3.02769 | 29183 ft | 456 kts | 156° |
| 2026-04-25 17:46 | 53.20153 | -2.98226 | 29173 ft | 456 kts | 156° |
| 2026-04-25 17:46 | 53.14415 | -2.93650 | 29169 ft | 457 kts | 156° |
| 2026-04-25 17:47 | 53.08550 | -2.89730 | 29172 ft | 454 kts | 168° |
| 2026-04-25 17:47 | 53.02297 | -2.88725 | 29173 ft | 448 kts | 184° |
| 2026-04-25 17:48 | 52.92963 | -2.89465 | 29163 ft | 449 kts | 186° |
| 2026-04-25 17:49 | 52.86773 | -2.90467 | 29167 ft | 448 kts | 192° |
| 2026-04-25 17:49 | 52.80588 | -2.91960 | 29171 ft | 448 kts | 191° |
| 2026-04-25 17:50 | 52.74414 | -2.93393 | 29197 ft | 454 kts | 191° |
| 2026-04-25 17:50 | 52.68094 | -2.94386 | 29194 ft | 460 kts | 186° |
| 2026-04-25 17:51 | 52.61689 | -2.94898 | 28077 ft | 464 kts | 186° |
| 2026-04-25 17:51 | 52.58410 | -2.95173 | 26722 ft | 474 kts | 186° |
| 2026-04-25 17:51 | 52.55125 | -2.95450 | 25933 ft | 470 kts | 186° |
| 2026-04-25 17:51 | 52.51860 | -2.95720 | 25176 ft | 465 kts | 185° |
| 2026-04-25 17:52 | 52.48638 | -2.95981 | 24420 ft | 460 kts | 185° |
| 2026-04-25 17:52 | 52.47595 | -2.96066 | 24182 ft | 459 kts | 185° |
| 2026-04-25 17:52 | 52.42313 | -2.96499 | 22900 ft | 453 kts | 185° |
| 2026-04-25 17:52 | 52.39179 | -2.96758 | 22186 ft | 448 kts | 185° |
| 2026-04-25 17:53 | 52.36067 | -2.97014 | 21507 ft | 443 kts | 185° |
| 2026-04-25 17:53 | 52.33008 | -2.97261 | 20854 ft | 438 kts | 185° |
| 2026-04-25 17:53 | 52.29977 | -2.97507 | 20242 ft | 433 kts | 185° |
| 2026-04-25 17:53 | 52.27020 | -2.97752 | 19640 ft | 428 kts | 185° |
| 2026-04-25 17:54 | 52.24043 | -2.97999 | 19031 ft | 424 kts | 185° |
| 2026-04-25 17:54 | 52.21114 | -2.98238 | 18429 ft | 419 kts | 185° |
| 2026-04-25 17:54 | 52.18210 | -2.98475 | 17771 ft | 415 kts | 185° |
| 2026-04-25 17:54 | 52.15332 | -2.98711 | 17122 ft | 411 kts | 185° |
| 2026-04-25 17:55 | 52.12484 | -2.98943 | 16485 ft | 407 kts | 185° |
| 2026-04-25 17:55 | 52.09692 | -2.99167 | 15947 ft | 402 kts | 184° |
| 2026-04-25 17:55 | 52.06946 | -2.99386 | 15836 ft | 387 kts | 184° |
| 2026-04-25 17:55 | 52.04271 | -2.99600 | 15710 ft | 382 kts | 184° |
| 2026-04-25 17:56 | 52.01614 | -2.99814 | 15584 ft | 380 kts | 184° |
| 2026-04-25 17:56 | 51.99007 | -3.00026 | 15440 ft | 379 kts | 184° |
| 2026-04-25 17:56 | 51.96357 | -3.00085 | 15286 ft | 379 kts | 177° |
| 2026-04-25 17:56 | 51.93751 | -2.99401 | 15143 ft | 381 kts | 167° |
| 2026-04-25 17:57 | 51.91204 | -2.98052 | 14321 ft | 389 kts | 161° |
| 2026-04-25 17:57 | 51.88686 | -2.96546 | 13649 ft | 389 kts | 160° |
| 2026-04-25 17:57 | 51.86159 | -2.95008 | 13035 ft | 386 kts | 160° |
| 2026-04-25 17:57 | 51.85307 | -2.94486 | 12850 ft | 385 kts | 160° |
| 2026-04-25 17:58 | 51.81180 | -2.91967 | 11969 ft | 377 kts | 160° |
| 2026-04-25 17:58 | 51.78732 | -2.90482 | 11456 ft | 372 kts | 160° |
| 2026-04-25 17:58 | 51.76344 | -2.89039 | 11268 ft | 362 kts | 160° |
| 2026-04-25 17:58 | 51.74026 | -2.87647 | 11013 ft | 356 kts | 160° |
| 2026-04-25 17:59 | 51.71707 | -2.86260 | 10601 ft | 350 kts | 160° |
| 2026-04-25 17:59 | 51.69475 | -2.84929 | 10466 ft | 334 kts | 160° |
| 2026-04-25 17:59 | 51.67374 | -2.83677 | 10349 ft | 309 kts | 160° |
| 2026-04-25 17:59 | 51.65412 | -2.82516 | 10039 ft | 294 kts | 161° |
| 2026-04-25 18:00 | 51.63482 | -2.81544 | 9427 ft | 288 kts | 172° |
| 2026-04-25 18:00 | 51.61539 | -2.81690 | 8814 ft | 282 kts | 195° |
| 2026-04-25 18:00 | 51.59672 | -2.82630 | 8125 ft | 281 kts | 200° |
| 2026-04-25 18:00 | 51.57826 | -2.83680 | 7461 ft | 280 kts | 200° |
| 2026-04-25 18:01 | 51.55998 | -2.84743 | 6834 ft | 278 kts | 200° |
| 2026-04-25 18:01 | 51.54243 | -2.85947 | 6176 ft | 275 kts | 208° |
| 2026-04-25 18:01 | 51.52579 | -2.87435 | 5531 ft | 272 kts | 210° |
| 2026-04-25 18:01 | 51.50938 | -2.88950 | 4898 ft | 270 kts | 210° |
| 2026-04-25 18:02 | 51.49320 | -2.90441 | 4574 ft | 268 kts | 210° |
| 2026-04-25 18:02 | 51.47700 | -2.91933 | 4511 ft | 268 kts | 210° |
| 2026-04-25 18:02 | 51.46094 | -2.93413 | 4485 ft | 269 kts | 210° |
| 2026-04-25 18:02 | 51.44482 | -2.94898 | 4350 ft | 260 kts | 210° |
| 2026-04-25 18:03 | 51.42976 | -2.96285 | 4214 ft | 239 kts | 210° |
| 2026-04-25 18:03 | 51.41565 | -2.97580 | 3870 ft | 230 kts | 210° |
| 2026-04-25 18:03 | 51.40088 | -2.98434 | 3457 ft | 227 kts | 181° |
| 2026-04-25 18:03 | 51.38601 | -2.97796 | 3416 ft | 225 kts | 147° |
| 2026-04-25 18:04 | 51.37586 | -2.95942 | 3316 ft | 227 kts | 112° |
| 2026-04-25 18:04 | 51.37373 | -2.93467 | 3091 ft | 225 kts | 87° |
| 2026-04-25 18:04 | 51.37486 | -2.91003 | 2804 ft | 216 kts | 85° |
| 2026-04-25 18:04 | 51.37596 | -2.88652 | 2524 ft | 207 kts | 86° |
| 2026-04-25 18:05 | 51.37689 | -2.86435 | 2276 ft | 196 kts | 86° |
| 2026-04-25 18:05 | 51.37774 | -2.84331 | 2017 ft | 182 kts | 86° |
| 2026-04-25 18:05 | 51.37853 | -2.82369 | 1760 ft | 170 kts | 86° |
| 2026-04-25 18:05 | 51.37926 | -2.80537 | 1565 ft | 158 kts | 86° |
| 2026-04-25 18:06 | 51.37971 | -2.79404 | 1425 ft | 151 kts | 86° |
| 2026-04-25 18:06 | 51.38058 | -2.77231 | 1152 ft | 146 kts | 86° |
| 2026-04-25 18:06 | 51.38124 | -2.75623 | 954 ft | 145 kts | 86° |
| 2026-04-25 18:06 | 51.38186 | -2.74017 | 757 ft | 144 kts | 86° |
| 2026-04-25 18:07 | 51.38227 | -2.72958 | 646 ft | 142 kts | 85° |
| 2026-04-25 18:07 | 51.38283 | -2.71540 | 605 ft | 97 kts | 86° |
| 2026-04-25 18:07 | 51.38308 | -2.70915 | 617 ft | 32 kts | 85° |
| 2026-04-25 18:07 | 51.38339 | -2.70765 | 613 ft | 15 kts | 35° |
| 2026-04-25 18:08 | 51.38424 | -2.70715 | 615 ft | 12 kts | 18° |
| 2026-04-25 18:08 | 51.38470 | -2.70779 | 613 ft | 9 kts | 274° |
| 2026-04-25 18:08 | 51.38493 | -2.70829 | 624 ft | 4 kts | 348° |
| 2026-04-25 18:08 | 51.38525 | -2.70821 | 618 ft | 5 kts | 45° |
| 2026-04-25 18:09 | 51.38532 | -2.70764 | 615 ft | 2 kts | 85° |